Time;durP1;ratioP1;P1;durP2;ratioP2;P2;SDS_P1;SDS_P2;PMS_P1;PMS_P2;Temp;Humidity;BMP_temperature;BMP_pressure;BME280_temperature;BME280_humidity;BME280_pressure;Samples;Min_cycle;Max_cycle;Signal;HPM_P1;HPM_P2
2023/06/25 00:00:55;;;;;;;17.85;8.32;;;;;;;22.92;90.41;100513.22;5016201;28;20030;-95
2023/06/25 00:03:20;;;;;;;16.45;8.95;;;;;;;22.94;90.52;100525.66;5000680;28;20061;-90
2023/06/25 00:05:46;;;;;;;23.48;9.63;;;;;;;22.92;90.58;100526.94;4996565;28;20421;-90
2023/06/25 00:08:11;;;;;;;20.65;8.57;;;;;;;22.92;90.59;100521.44;5015680;28;20049;-89
2023/06/25 00:10:37;;;;;;;27.40;9.07;;;;;;;22.97;89.85;100524.41;5012130;28;20498;-90
2023/06/25 00:13:03;;;;;;;27.35;8.65;;;;;;;22.95;89.71;100521.03;5016447;28;20038;-92
2023/06/25 00:15:28;;;;;;;30.40;8.32;;;;;;;22.80;89.81;100506.66;5014677;28;20116;-88
2023/06/25 00:17:54;;;;;;;27.40;10.18;;;;;;;22.84;89.68;100513.44;5015213;28;20097;-87
2023/06/25 00:20:19;;;;;;;16.80;8.60;;;;;;;22.82;89.58;100505.38;5015423;28;20053;-88
2023/06/25 00:22:45;;;;;;;15.32;8.20;;;;;;;22.85;89.58;100515.94;5015894;28;20064;-89
2023/06/25 00:25:14;;;;;;;17.00;7.88;;;;;;;22.67;89.63;100496.50;5014279;28;20033;-92
2023/06/25 00:27:40;;;;;;;19.05;8.43;;;;;;;22.77;90.09;100519.75;5012365;28;20144;-87
2023/06/25 00:30:07;;;;;;;20.67;8.50;;;;;;;22.82;89.71;100510.03;5011940;28;20593;-87
2023/06/25 00:32:32;;;;;;;28.67;10.27;;;;;;;22.78;89.30;100504.94;5011722;28;20042;-87
2023/06/25 00:34:59;;;;;;;16.88;8.00;;;;;;;22.68;89.24;100493.56;5010522;28;20077;-88
2023/06/25 00:37:24;;;;;;;17.75;8.75;;;;;;;22.76;89.34;100517.19;5009849;28;20473;-89
2023/06/25 00:39:50;;;;;;;21.80;7.93;;;;;;;22.80;89.26;100517.63;5010571;28;20077;-89
2023/06/25 00:42:16;;;;;;;21.45;8.25;;;;;;;22.68;89.07;100509.16;5010599;28;20038;-88
2023/06/25 00:44:42;;;;;;;17.80;8.43;;;;;;;22.70;89.33;100505.16;5011081;28;20461;-88
2023/06/25 00:47:15;;;;;;;18.40;8.13;;;;;;;22.62;89.75;100515.44;4993519;28;20037;-88
2023/06/25 00:49:46;;;;;;;21.73;8.80;;;;;;;22.63;90.25;100517.94;4993183;28;20045;-88
2023/06/25 00:52:13;;;;;;;15.63;8.23;;;;;;;22.56;90.16;100500.66;5012274;28;20533;-87
2023/06/25 00:54:41;;;;;;;12.70;7.65;;;;;;;22.67;89.92;100524.75;5010807;28;20041;-87
2023/06/25 00:57:07;;;;;;;21.80;8.30;;;;;;;22.61;89.73;100509.09;5010838;28;20057;-87
2023/06/25 00:59:39;;;;;;;27.85;8.52;;;;;;;22.66;89.44;100512.09;4993168;28;20429;-90
2023/06/25 01:02:43;;;;;;;11.02;7.85;;;;;;;22.73;89.79;100523.09;5013119;28;20030;-86
2023/06/25 01:05:47;;;;;;;20.55;8.60;;;;;;;22.73;89.31;100525.81;5017451;28;20041;-85
2023/06/25 01:08:16;;;;;;;16.33;8.07;;;;;;;22.57;89.53;100507.81;5033834;28;20096;-89
2023/06/25 01:10:43;;;;;;;26.00;9.30;;;;;;;22.60;90.16;100518.38;5021979;28;20033;-88
2023/06/25 01:13:08;;;;;;;28.65;7.80;;;;;;;22.67;89.54;100512.94;5018220;28;20022;-88
2023/06/25 01:15:34;;;;;;;24.30;8.18;;;;;;;22.67;89.08;100508.31;5035070;28;20045;-88
2023/06/25 01:17:59;;;;;;;16.75;8.48;;;;;;;22.62;89.42;100510.81;5015101;28;20061;-87
2023/06/25 01:20:27;;;;;;;14.77;8.15;;;;;;;22.57;89.75;100510.53;5016951;28;20042;-88
2023/06/25 01:22:55;;;;;;;17.10;8.18;;;;;;;22.58;89.72;100508.66;4993237;28;20030;-87
2023/06/25 01:25:20;;;;;;;9.68;7.00;;;;;;;22.57;88.71;100513.28;5010608;28;20034;-87
2023/06/25 01:27:47;;;;;;;13.65;7.65;;;;;;;22.55;89.04;100509.91;5011448;28;20109;-88
2023/06/25 01:30:14;;;;;;;11.68;6.95;;;;;;;22.50;89.47;100500.63;5012420;28;20038;-86
2023/06/25 01:32:41;;;;;;;15.98;8.88;;;;;;;22.56;89.47;100517.09;4992910;28;20053;-88
2023/06/25 01:35:08;;;;;;;17.98;9.63;;;;;;;22.40;89.98;100501.00;5011174;28;20473;-87
2023/06/25 01:37:33;;;;;;;23.58;12.18;;;;;;;22.35;90.69;100495.31;5014444;28;20034;-87
2023/06/25 01:39:59;;;;;;;35.20;17.40;;;;;;;22.16;91.19;100474.13;5014642;28;20038;-88
2023/06/25 01:42:24;;;;;;;21.08;13.10;;;;;;;22.36;91.80;100502.44;5014752;28;20037;-88
2023/06/25 01:44:50;;;;;;;26.58;14.10;;;;;;;22.36;92.15;100496.97;5020311;28;20066;-87
2023/06/25 01:47:15;;;;;;;27.98;15.50;;;;;;;22.33;92.35;100500.13;5020179;28;20406;-88
2023/06/25 01:49:41;;;;;;;26.15;13.57;;;;;;;22.33;92.44;100494.63;5020347;28;20037;-88
2023/06/25 01:52:07;;;;;;;22.50;14.15;;;;;;;22.28;92.51;100494.41;5038079;28;20066;-88
2023/06/25 01:54:33;;;;;;;21.50;14.40;;;;;;;22.36;92.00;100505.19;5037587;28;20086;-89
2023/06/25 01:56:59;;;;;;;26.35;14.07;;;;;;;22.36;91.95;100498.88;5038146;28;20090;-87
2023/06/25 01:59:25;;;;;;;23.13;12.55;;;;;;;22.27;92.01;100491.88;5039702;28;20046;-88
2023/06/25 02:01:50;;;;;;;27.70;14.20;;;;;;;22.26;92.30;100498.41;5034840;28;20062;-87
2023/06/25 02:04:15;;;;;;;24.20;11.50;;;;;;;22.28;91.90;100508.13;5023510;28;20046;-89
2023/06/25 02:06:41;;;;;;;16.80;10.93;;;;;;;22.22;90.53;100500.72;5016505;28;20066;-87
2023/06/25 02:09:07;;;;;;;22.65;8.50;;;;;;;22.08;89.53;100510.75;5022784;28;20041;-86
2023/06/25 02:11:32;;;;;;;18.08;8.45;;;;;;;22.10;89.15;100513.28;5023772;28;20490;-86
2023/06/25 02:13:58;;;;;;;15.88;9.77;;;;;;;22.15;88.67;100521.75;5031765;28;20113;-88
2023/06/25 02:16:23;;;;;;;20.85;9.95;;;;;;;22.02;88.11;100507.97;5029541;28;20537;-88
2023/06/25 02:18:49;;;;;;;18.77;10.05;;;;;;;22.14;87.69;100523.63;5014311;28;20037;-88
2023/06/25 02:21:15;;;;;;;17.88;10.07;;;;;;;22.12;87.54;100522.16;4995796;28;20033;-88
2023/06/25 02:23:40;;;;;;;20.75;10.38;;;;;;;22.03;88.16;100526.09;5012985;28;20041;-88
2023/06/25 02:26:06;;;;;;;30.10;12.93;;;;;;;21.99;88.66;100525.66;4970650;28;20074;-88
2023/06/25 02:28:31;;;;;;;28.42;14.80;;;;;;;21.88;90.10;100511.66;4971127;28;20050;-87
2023/06/25 02:30:57;;;;;;;41.45;16.65;;;;;;;22.00;90.87;100532.81;4970742;28;20039;-86
2023/06/25 02:33:22;;;;;;;31.83;17.00;;;;;;;21.94;91.51;100528.16;4971210;28;20121;-87
2023/06/25 02:35:48;;;;;;;29.33;17.05;;;;;;;21.95;91.86;100531.75;4970249;28;20109;-88
2023/06/25 02:38:13;;;;;;;24.52;14.77;;;;;;;21.87;91.39;100520.88;4970985;28;20576;-88
2023/06/25 02:40:39;;;;;;;22.50;14.02;;;;;;;21.79;91.46;100521.91;4971464;28;20038;-87
2023/06/25 02:43:04;;;;;;;25.48;14.07;;;;;;;21.81;91.59;100513.47;4970787;28;20114;-88
2023/06/25 02:45:30;;;;;;;26.00;14.65;;;;;;;21.76;91.17;100496.81;4954202;28;20083;-87
2023/06/25 02:47:56;;;;;;;20.60;12.98;;;;;;;21.84;90.50;100526.78;4969668;28;20046;-90
2023/06/25 02:50:21;;;;;;;23.80;14.20;;;;;;;21.77;90.89;100520.44;4971044;28;20130;-88
2023/06/25 02:52:47;;;;;;;25.85;15.00;;;;;;;21.82;90.75;100528.88;4970494;28;20047;-88
2023/06/25 02:55:12;;;;;;;22.45;12.65;;;;;;;21.75;91.10;100503.34;4970773;28;20039;-88
2023/06/25 02:57:38;;;;;;;24.65;11.00;;;;;;;21.74;90.74;100521.69;4999710;28;20042;-88
2023/06/25 03:00:05;;;;;;;20.95;10.45;;;;;;;21.78;89.24;100505.66;5012592;28;20062;-88
2023/06/25 03:02:30;;;;;;;15.27;8.82;;;;;;;21.83;87.70;100509.53;5017548;28;20026;-87
2023/06/25 03:04:56;;;;;;;14.95;7.95;;;;;;;21.81;85.83;100497.06;5036701;28;20033;-87
2023/06/25 03:07:21;;;;;;;14.05;7.40;;;;;;;21.70;84.81;100485.63;5034559;28;20041;-87
2023/06/25 03:09:47;;;;;;;17.80;7.95;;;;;;;21.95;84.29;100518.06;5042514;28;20079;-88
2023/06/25 03:12:13;;;;;;;14.55;9.07;;;;;;;21.91;83.34;100495.69;5055772;28;20045;-87
2023/06/25 03:14:39;;;;;;;15.10;7.90;;;;;;;21.95;82.63;100501.63;5049994;28;20037;-87
2023/06/25 03:17:05;;;;;;;13.57;8.63;;;;;;;21.85;82.58;100501.09;5016107;28;20049;-87
2023/06/25 03:19:31;;;;;;;17.85;8.25;;;;;;;21.82;83.02;100506.97;5034260;28;20045;-88
2023/06/25 03:21:56;;;;;;;17.13;7.93;;;;;;;21.85;83.46;100506.56;5031420;28;20033;-87
2023/06/25 03:24:22;;;;;;;18.48;8.43;;;;;;;21.90;83.14;100504.09;5031652;28;20048;-87
2023/06/25 03:26:48;;;;;;;21.05;10.05;;;;;;;21.93;83.34;100503.69;5031449;28;20030;-87
2023/06/25 03:29:13;;;;;;;23.80;10.80;;;;;;;21.92;83.85;100502.03;5032005;28;20034;-87
2023/06/25 03:31:38;;;;;;;20.80;10.32;;;;;;;21.87;84.35;100483.41;5031299;28;20045;-88
2023/06/25 03:34:04;;;;;;;26.33;10.98;;;;;;;21.84;84.58;100472.00;5008897;28;20069;-87
2023/06/25 03:36:29;;;;;;;29.73;12.35;;;;;;;21.94;84.84;100483.47;5009027;28;20034;-88
2023/06/25 03:38:56;;;;;;;25.25;11.73;;;;;;;21.98;84.18;100471.09;5003685;28;20603;-86
2023/06/25 03:41:22;;;;;;;31.30;11.70;;;;;;;22.09;83.89;100487.78;4991052;28;20098;-88
2023/06/25 03:43:47;;;;;;;36.33;12.93;;;;;;;22.06;84.08;100492.81;4991433;28;20087;-86
2023/06/25 03:46:13;;;;;;;23.38;11.40;;;;;;;22.07;84.38;100484.41;4990171;28;20518;-87
2023/06/25 03:48:41;;;;;;;29.52;12.32;;;;;;;22.12;84.50;100483.78;4989512;28;20049;-86
2023/06/25 03:51:06;;;;;;;25.08;12.05;;;;;;;22.17;83.81;100489.50;5008635;28;20049;-86
2023/06/25 03:53:32;;;;;;;25.08;12.50;;;;;;;22.24;82.15;100487.66;5013069;28;20034;-87
2023/06/25 03:55:57;;;;;;;24.38;12.18;;;;;;;22.15;80.99;100475.16;5005170;28;20058;-86
2023/06/25 03:58:22;;;;;;;18.85;13.13;;;;;;;22.23;82.72;100477.75;5011499;28;20641;-87
2023/06/25 04:00:48;;;;;;;36.97;13.30;;;;;;;22.18;83.24;100458.31;4989601;28;20550;-87
2023/06/25 04:03:13;;;;;;;29.05;17.27;;;;;;;22.44;83.11;100488.59;4990717;28;20050;-87
2023/06/25 04:05:39;;;;;;;48.20;26.95;;;;;;;22.44;83.50;100480.38;4995990;28;20121;-85
2023/06/25 04:08:04;;;;;;;39.03;20.50;;;;;;;22.60;82.77;100490.09;4991559;28;20134;-87
2023/06/25 04:10:30;;;;;;;30.17;18.05;;;;;;;22.68;82.70;100488.06;5004214;28;20046;-88
2023/06/25 04:12:55;;;;;;;40.72;21.42;;;;;;;22.72;83.07;100483.84;5011649;28;20121;-87
2023/06/25 04:15:21;;;;;;;36.35;17.17;;;;;;;22.76;82.62;100473.31;5023758;28;20072;-86
2023/06/25 04:17:49;;;;;;;25.88;15.38;;;;;;;22.84;82.52;100477.78;5018089;28;20038;-86
2023/06/25 04:20:14;;;;;;;25.63;15.02;;;;;;;22.92;82.17;100494.03;4994965;28;20118;-87
2023/06/25 04:22:40;;;;;;;29.75;16.10;;;;;;;22.83;82.23;100495.28;5010429;28;20046;-87
2023/06/25 04:25:06;;;;;;;31.33;15.82;;;;;;;22.87;82.42;100496.56;5011467;28;20034;-88
2023/06/25 04:27:31;;;;;;;29.23;16.85;;;;;;;22.95;82.66;100494.47;5010314;28;20457;-87
2023/06/25 04:29:57;;;;;;;35.83;18.83;;;;;;;23.07;82.71;100494.69;4993192;28;20068;-88
2023/06/25 04:32:22;;;;;;;42.97;19.15;;;;;;;23.08;82.37;100478.03;5010573;28;20034;-87
2023/06/25 04:34:48;;;;;;;31.90;18.88;;;;;;;23.22;82.02;100501.66;4993446;28;20074;-87
2023/06/25 04:37:13;;;;;;;31.02;19.45;;;;;;;23.20;81.40;100489.22;5010763;28;20026;-87
2023/06/25 04:39:40;;;;;;;39.03;20.98;;;;;;;23.27;80.71;100498.31;5023683;28;20048;-87
2023/06/25 04:42:06;;;;;;;39.10;19.85;;;;;;;23.36;80.23;100491.56;5011588;28;20058;-86
2023/06/25 04:44:32;;;;;;;34.33;17.55;;;;;;;23.43;80.37;100499.78;5010713;28;20081;-87
2023/06/25 04:46:58;;;;;;;34.10;19.63;;;;;;;23.43;80.02;100489.66;5013690;28;20505;-87
2023/06/25 04:49:23;;;;;;;32.97;20.13;;;;;;;23.46;79.98;100491.97;4995619;28;20129;-87
2023/06/25 04:51:49;;;;;;;41.13;21.63;;;;;;;23.49;79.93;100493.44;5019088;28;20134;-86
2023/06/25 04:54:15;;;;;;;43.55;24.75;;;;;;;23.52;80.32;100504.88;5012114;28;20042;-86
2023/06/25 04:56:40;;;;;;;42.38;28.67;;;;;;;23.49;81.06;100501.69;5025138;28;20038;-89
2023/06/25 04:59:06;;;;;;;59.17;33.47;;;;;;;23.36;81.29;100486.06;5012674;28;20038;-87
2023/06/25 05:01:32;;;;;;;70.97;34.65;;;;;;;23.41;80.86;100489.03;5010836;28;20119;-88
2023/06/25 05:03:58;;;;;;;52.65;31.95;;;;;;;23.51;80.42;100485.88;5025764;28;20034;-87
2023/06/25 05:06:24;;;;;;;51.65;30.77;;;;;;;23.59;79.27;100485.66;5025142;28;20038;-87
2023/06/25 05:08:49;;;;;;;85.75;32.08;;;;;;;23.59;78.12;100470.03;5012277;28;20141;-86
2023/06/25 05:11:15;;;;;;;42.70;28.23;;;;;;;23.70;75.55;100472.09;4993782;28;20045;-87
2023/06/25 05:13:41;;;;;;;52.38;30.52;;;;;;;23.71;74.02;100483.94;5014838;28;20092;-88
2023/06/25 05:16:06;;;;;;;48.50;27.70;;;;;;;23.77;73.00;100474.84;4995801;28;20129;-88
2023/06/25 05:18:31;;;;;;;46.03;26.67;;;;;;;23.88;71.67;100471.47;4996668;28;20084;-86
2023/06/25 05:20:57;;;;;;;36.90;23.00;;;;;;;23.96;71.27;100464.88;5013908;28;20034;-88
2023/06/25 05:23:24;;;;;;;33.03;19.30;;;;;;;24.10;69.62;100480.25;5013884;28;20066;-88
2023/06/25 05:25:51;;;;;;;36.50;19.33;;;;;;;24.12;68.74;100461.69;5013871;28;20594;-87
2023/06/25 05:28:16;;;;;;;24.17;16.88;;;;;;;24.11;67.86;100451.75;5013524;28;20044;-89
2023/06/25 05:30:42;;;;;;;27.35;16.83;;;;;;;24.23;67.70;100469.25;5013624;28;20029;-87
2023/06/25 05:33:07;;;;;;;29.02;16.30;;;;;;;24.29;67.29;100465.63;4997619;28;20038;-86
2023/06/25 05:35:33;;;;;;;29.67;17.42;;;;;;;24.34;65.82;100463.09;5016486;28;20040;-88
2023/06/25 05:37:58;;;;;;;36.40;16.58;;;;;;;24.35;65.15;100454.63;4998369;28;20413;-88
2023/06/25 05:40:26;;;;;;;48.75;16.80;;;;;;;24.44;64.86;100457.94;5017859;28;20045;-89
2023/06/25 05:42:54;;;;;;;26.73;16.25;;;;;;;24.57;64.85;100452.38;5014858;28;20065;-90
2023/06/25 05:45:20;;;;;;;32.88;16.58;;;;;;;24.65;64.33;100454.88;5000380;28;20050;-87
2023/06/25 05:47:46;;;;;;;23.35;15.80;;;;;;;24.72;63.84;100444.69;5014598;28;20486;-83
2023/06/25 05:50:11;;;;;;;25.55;15.15;;;;;;;24.90;63.14;100447.56;5014102;28;20068;-88
2023/06/25 05:52:37;;;;;;;25.60;14.15;;;;;;;25.02;61.63;100455.94;4998027;28;20618;-91
2023/06/25 05:55:03;;;;;;;27.33;15.07;;;;;;;24.95;62.08;100421.28;5012386;28;20088;-84
2023/06/25 05:57:28;;;;;;;28.83;15.80;;;;;;;25.11;62.20;100431.72;5014599;28;20576;-90
2023/06/25 05:59:54;;;;;;;34.92;15.98;;;;;;;25.20;62.02;100436.72;5004356;28;20060;-89
2023/06/25 06:02:19;;;;;;;26.95;16.25;;;;;;;25.34;61.71;100430.06;5025714;28;20053;-84
2023/06/25 06:04:44;;;;;;;25.75;18.58;;;;;;;25.40;62.52;100437.41;5019054;28;20030;-85
2023/06/25 06:07:10;;;;;;;34.13;20.17;;;;;;;25.45;62.89;100426.56;4993657;28;20045;-85
2023/06/25 06:09:35;;;;;;;36.17;20.50;;;;;;;25.45;63.12;100423.81;5012048;28;20470;-84
2023/06/25 06:12:01;;;;;;;42.05;22.95;;;;;;;25.53;62.98;100428.22;5012606;28;20433;-87
2023/06/25 06:14:26;;;;;;;49.60;22.42;;;;;;;25.48;63.11;100422.50;5010809;28;20041;-87
2023/06/25 06:16:52;;;;;;;36.80;22.95;;;;;;;25.60;62.44;100430.88;5012481;28;20413;-86
2023/06/25 06:19:17;;;;;;;40.83;25.33;;;;;;;25.64;62.65;100410.94;4994655;28;20034;-83
2023/06/25 06:21:43;;;;;;;48.75;24.67;;;;;;;25.57;62.70;100415.66;5012182;28;20037;-82
2023/06/25 06:24:08;;;;;;;37.72;24.98;;;;;;;25.72;62.06;100416.13;5021632;28;20030;-83
2023/06/25 06:26:35;;;;;;;46.67;26.33;;;;;;;25.76;62.25;100417.38;5024697;28;20065;-82
2023/06/25 06:29:03;;;;;;;54.53;31.67;;;;;;;25.82;61.70;100424.72;5033382;28;20100;-83
2023/06/25 06:31:30;;;;;;;44.35;30.15;;;;;;;25.79;61.35;100405.88;5018286;28;20045;-84
2023/06/25 06:33:56;;;;;;;42.20;25.65;;;;;;;25.93;61.94;100412.91;5026437;28;20042;-81
2023/06/25 06:36:21;;;;;;;42.05;26.23;;;;;;;26.06;61.32;100420.19;5014307;28;20471;-81
2023/06/25 06:38:47;;;;;;;42.88;27.95;;;;;;;26.13;60.83;100420.13;5025106;28;20022;-82
2023/06/25 06:41:12;;;;;;;60.72;28.48;;;;;;;26.16;60.52;100403.16;5017249;28;20009;-83
2023/06/25 06:43:37;;;;;;;36.65;26.55;;;;;;;26.27;59.96;100405.09;5026270;28;20129;-86
2023/06/25 06:46:03;;;;;;;44.03;26.70;;;;;;;26.35;59.56;100410.31;5020788;28;20501;-84
2023/06/25 06:48:29;;;;;;;55.45;25.55;;;;;;;26.45;58.85;100405.09;5014492;28;20592;-87
2023/06/25 06:50:55;;;;;;;44.17;23.95;;;;;;;26.49;58.99;100409.06;5012473;28;20030;-83
2023/06/25 06:53:20;;;;;;;40.33;23.25;;;;;;;26.58;58.52;100410.41;5011714;28;20498;-84
2023/06/25 06:55:46;;;;;;;37.47;22.65;;;;;;;26.67;58.02;100400.72;5010926;28;20510;-85
2023/06/25 06:58:11;;;;;;;43.42;23.75;;;;;;;26.76;57.78;100404.81;5027224;28;20038;-86
2023/06/25 07:00:36;;;;;;;48.63;22.80;;;;;;;26.79;57.46;100392.47;5025403;28;20052;-89
2023/06/25 07:03:02;;;;;;;35.65;20.23;;;;;;;26.87;57.06;100400.47;5010166;28;20054;-79
2023/06/25 07:05:27;;;;;;;39.35;19.73;;;;;;;26.81;56.55;100385.69;5011087;28;20045;-87
2023/06/25 07:07:53;;;;;;;44.35;24.77;;;;;;;26.92;56.43;100392.31;5012701;28;20030;-87
2023/06/25 07:10:18;;;;;;;39.67;18.98;;;;;;;27.00;56.15;100405.78;5018403;28;20050;-85
2023/06/25 07:12:44;;;;;;;33.10;19.92;;;;;;;27.04;56.07;100407.81;5012676;28;20179;-82
2023/06/25 07:15:09;;;;;;;29.17;19.45;;;;;;;27.14;55.97;100395.34;5013548;28;20033;-87
2023/06/25 07:17:35;;;;;;;33.90;18.25;;;;;;;27.24;55.51;100390.06;5012279;28;20029;-85
2023/06/25 07:20:00;;;;;;;35.28;17.65;;;;;;;27.35;55.93;100389.22;5015153;28;20049;-89
2023/06/25 07:22:26;;;;;;;29.63;18.45;;;;;;;27.43;54.99;100383.38;4999472;28;20034;-91
2023/06/25 07:24:51;;;;;;;31.42;17.50;;;;;;;27.53;55.15;100394.66;4994324;28;20104;-91
2023/06/25 07:27:17;;;;;;;25.67;17.13;;;;;;;27.63;54.83;100389.38;5012742;28;20038;-89
2023/06/25 07:29:42;;;;;;;30.10;16.20;;;;;;;27.72;54.52;100387.91;5013138;28;20783;-87
2023/06/25 07:32:08;;;;;;;29.25;16.98;;;;;;;27.81;54.29;100380.94;5012079;28;20034;-87
2023/06/25 07:34:34;;;;;;;23.30;15.23;;;;;;;27.80;53.52;100362.66;5011146;28;20038;-87
2023/06/25 07:36:59;;;;;;;29.77;15.68;;;;;;;27.94;53.83;100379.81;4995071;28;20406;-84
2023/06/25 07:39:29;;;;;;;23.25;13.73;;;;;;;27.93;53.19;100367.91;4995769;28;20144;-90
2023/06/25 07:41:55;;;;;;;26.48;14.45;;;;;;;28.02;52.89;100360.06;5012840;28;20065;-86
2023/06/25 07:44:21;;;;;;;25.30;13.60;;;;;;;28.23;52.62;100389.00;5012578;28;20149;-84
2023/06/25 07:46:46;;;;;;;25.75;12.98;;;;;;;28.14;52.53;100357.31;5011903;28;20251;-91
2023/06/25 07:49:12;;;;;;;27.17;12.18;;;;;;;28.41;52.57;100380.53;4991535;28;20034;-84
2023/06/25 07:51:37;;;;;;;24.40;12.60;;;;;;;28.39;52.08;100366.09;5010744;28;20029;-80
2023/06/25 07:54:03;;;;;;;30.92;13.38;;;;;;;28.48;51.76;100367.38;5010055;28;20034;-81
2023/06/25 07:56:28;;;;;;;24.10;11.77;;;;;;;28.54;51.63;100353.41;5015904;28;20061;-85
2023/06/25 07:58:54;;;;;;;22.05;11.45;;;;;;;28.79;51.51;100374.34;4995100;28;20038;-83
2023/06/25 08:01:20;;;;;;;20.80;11.38;;;;;;;28.81;50.84;100361.94;5009094;28;20034;-86
2023/06/25 08:03:45;;;;;;;21.25;11.30;;;;;;;28.95;50.66;100365.22;5009787;28;20053;-88
2023/06/25 08:06:11;;;;;;;18.08;10.40;;;;;;;28.88;50.50;100348.78;5009942;28;20038;-84
2023/06/25 08:08:36;;;;;;;20.05;10.80;;;;;;;29.04;49.93;100358.16;4992300;28;20042;-86
2023/06/25 08:11:02;;;;;;;16.92;10.40;;;;;;;29.11;50.00;100375.47;4991999;28;20426;-84
2023/06/25 08:13:27;;;;;;;16.48;8.93;;;;;;;29.17;49.83;100358.66;5016552;28;20048;-85
2023/06/25 08:15:54;;;;;;;14.85;9.65;;;;;;;29.22;50.13;100352.38;5011116;28;20121;-89
2023/06/25 08:18:19;;;;;;;23.17;8.35;;;;;;;29.27;51.17;100348.84;5011249;28;20068;-86
2023/06/25 08:20:46;;;;;;;21.05;8.70;;;;;;;29.44;51.57;100358.00;5029937;28;20068;-83
2023/06/25 08:23:11;;;;;;;17.70;8.88;;;;;;;29.36;51.54;100339.84;4987229;28;20065;-84
2023/06/25 08:25:38;;;;;;;19.05;8.38;;;;;;;29.39;51.81;100349.59;4970335;28;20124;-83
2023/06/25 08:28:17;;;;;;;10.32;7.65;;;;;;;29.40;51.66;100346.59;5086150;28;20384;-90
2023/06/25 08:30:43;;;;;;;21.88;8.43;;;;;;;29.39;51.25;100338.50;5085442;28;20036;-86
2023/06/25 08:33:08;;;;;;;12.70;7.35;;;;;;;29.36;51.48;100341.78;5086700;28;20047;-92
2023/06/25 08:35:34;;;;;;;23.00;7.63;;;;;;;29.17;51.91;100336.50;5086475;28;20032;-90
2023/06/25 08:37:59;;;;;;;31.17;8.52;;;;;;;29.03;52.00;100329.63;5085423;28;20063;-88
2023/06/25 08:40:26;;;;;;;10.10;7.85;;;;;;;28.98;52.19;100335.09;5084515;28;20020;-85
2023/06/25 08:42:52;;;;;;;10.98;6.70;;;;;;;28.72;52.66;100321.91;5086080;28;20028;-84
2023/06/25 08:45:18;;;;;;;12.38;6.88;;;;;;;28.76;52.73;100320.31;5067413;28;20031;-85
2023/06/25 08:47:48;;;;;;;10.93;7.43;;;;;;;28.91;52.94;100336.34;5067459;28;20389;-86
2023/06/25 08:50:14;;;;;;;16.38;8.65;;;;;;;28.90;52.73;100329.97;5094116;28;20055;-88
2023/06/25 08:52:40;;;;;;;14.90;7.95;;;;;;;28.73;53.12;100323.59;5110059;28;20035;-91
2023/06/25 08:55:09;;;;;;;19.75;7.47;;;;;;;28.72;53.12;100324.69;5099345;28;20166;-90
2023/06/25 08:57:35;;;;;;;18.70;8.50;;;;;;;28.90;53.25;100341.03;5087399;28;20037;-78
2023/06/25 09:00:00;;;;;;;9.77;7.75;;;;;;;28.88;53.00;100337.69;5085054;28;20028;-76
2023/06/25 09:02:29;;;;;;;16.02;8.68;;;;;;;28.89;53.38;100339.38;5085539;28;20029;-92
2023/06/25 09:05:05;;;;;;;17.67;8.35;;;;;;;28.71;53.40;100322.19;5086951;28;20028;-87
2023/06/25 09:07:33;;;;;;;13.98;8.93;;;;;;;28.70;53.37;100329.63;5087914;28;20426;-92
2023/06/25 09:09:58;;;;;;;16.50;8.25;;;;;;;28.52;53.74;100299.41;5085623;28;20512;-93
2023/06/25 09:12:24;;;;;;;15.18;8.23;;;;;;;28.57;53.67;100302.25;5085899;28;20070;-86
2023/06/25 09:14:50;;;;;;;15.23;8.65;;;;;;;28.59;53.77;100313.91;5086164;28;20480;-84
2023/06/25 09:17:23;;;;;;;14.50;7.22;;;;;;;28.67;53.73;100316.28;5092857;28;20091;-87
2023/06/25 09:19:48;;;;;;;15.70;8.32;;;;;;;28.61;53.81;100331.09;5105922;28;20108;-92
2023/06/25 09:22:14;;;;;;;23.30;8.82;;;;;;;28.75;53.80;100321.41;5086494;28;20035;-85
2023/06/25 09:24:49;;;;;;;20.80;8.43;;;;;;;28.62;53.15;100302.34;5089522;28;20036;-90
2023/06/25 09:27:14;;;;;;;16.88;8.80;;;;;;;28.61;52.91;100307.03;5086163;28;20048;-89
2023/06/25 09:29:40;;;;;;;11.18;7.75;;;;;;;28.64;52.45;100300.16;5086684;28;20023;-90
2023/06/25 09:32:10;;;;;;;19.17;7.88;;;;;;;28.75;52.18;100298.41;5084827;28;20052;-89
2023/06/25 09:34:37;;;;;;;23.05;10.18;;;;;;;28.84;51.58;100280.28;5083097;28;20031;-89
2023/06/25 09:37:06;;;;;;;11.50;7.68;;;;;;;28.88;52.33;100293.41;5085072;28;20132;-89
2023/06/25 09:39:31;;;;;;;14.43;6.72;;;;;;;28.94;51.80;100303.47;5075332;28;20032;-90
2023/06/25 09:42:00;;;;;;;13.85;8.13;;;;;;;28.99;51.78;100302.72;5082836;28;20178;-87
2023/06/25 09:44:30;;;;;;;12.40;7.80;;;;;;;28.90;51.27;100302.28;5079974;28;20041;-83
2023/06/25 09:47:04;;;;;;;15.77;7.75;;;;;;;28.88;49.52;100287.84;5069536;28;20098;-79
2023/06/25 09:49:31;;;;;;;18.25;7.60;;;;;;;28.84;49.01;100278.38;5072430;28;20574;-87
2023/06/25 09:52:04;;;;;;;12.27;7.90;;;;;;;29.11;48.73;100290.41;5073424;28;20638;-83
2023/06/25 09:54:31;;;;;;;19.88;8.68;;;;;;;29.27;48.91;100290.66;5052898;28;20064;-83
2023/06/25 09:57:00;;;;;;;24.60;8.73;;;;;;;29.37;48.05;100268.66;5070668;28;20036;-85
2023/06/25 09:59:26;;;;;;;33.65;9.32;;;;;;;29.53;47.56;100278.84;5072106;28;20040;-81
2023/06/25 10:01:52;;;;;;;18.98;7.78;;;;;;;29.62;46.98;100288.41;5068173;28;20182;-83
2023/06/25 10:04:19;;;;;;;13.45;7.95;;;;;;;29.69;47.14;100277.97;5067696;28;20476;-89
2023/06/25 10:06:46;;;;;;;29.13;10.00;;;;;;;29.86;46.04;100273.19;5063754;28;20108;-82
2023/06/25 10:09:12;;;;;;;16.65;8.00;;;;;;;30.05;45.56;100274.53;5051359;28;20496;-88
2023/06/25 10:11:47;;;;;;;27.00;9.00;;;;;;;30.01;45.13;100270.59;5051998;28;20084;-82
2023/06/25 10:14:13;;;;;;;18.23;8.38;;;;;;;29.96;44.85;100262.22;5068075;28;20098;-82
2023/06/25 10:16:39;;;;;;;38.45;10.02;;;;;;;30.02;44.93;100277.84;5068271;28;20028;-81
2023/06/25 10:19:04;;;;;;;10.00;7.82;;;;;;;30.05;45.16;100277.31;5069469;28;20052;-79
2023/06/25 10:21:31;;;;;;;14.00;8.40;;;;;;;30.10;45.13;100257.94;5070059;28;20040;-78
2023/06/25 10:24:00;;;;;;;15.90;7.95;;;;;;;30.22;44.77;100258.63;5070180;28;20036;-78
2023/06/25 10:26:29;;;;;;;13.60;7.95;;;;;;;30.38;44.84;100265.16;5069627;28;20686;-80
2023/06/25 10:28:58;;;;;;;22.77;8.93;;;;;;;30.42;44.76;100252.47;5069909;28;20484;-78
2023/06/25 10:31:24;;;;;;;19.40;8.88;;;;;;;30.37;44.87;100245.97;5071448;28;20686;-80
2023/06/25 10:33:49;;;;;;;11.18;7.65;;;;;;;30.51;45.76;100256.44;5071432;28;20086;-78
2023/06/25 10:36:15;;;;;;;24.58;8.32;;;;;;;30.41;45.50;100253.56;5073203;28;20039;-80
2023/06/25 10:38:40;;;;;;;11.25;8.57;;;;;;;30.33;46.12;100244.84;5082554;28;20109;-79
2023/06/25 10:41:06;;;;;;;15.43;8.70;;;;;;;30.30;46.52;100245.38;5081804;28;20043;-91
2023/06/25 10:43:31;;;;;;;18.55;8.70;;;;;;;30.34;46.33;100252.91;5080644;28;20059;-80
2023/06/25 10:45:58;;;;;;;14.07;8.20;;;;;;;30.45;47.73;100259.41;5072634;28;20021;-79
2023/06/25 10:48:25;;;;;;;18.00;8.05;;;;;;;30.52;48.33;100249.75;5070441;28;20158;-80
2023/06/25 10:50:52;;;;;;;34.35;9.63;;;;;;;30.55;50.82;100254.78;5068721;28;20531;-79
2023/06/25 10:53:20;;;;;;;22.25;8.80;;;;;;;30.68;51.73;100247.94;5071289;28;20027;-77
2023/06/25 10:55:47;;;;;;;15.50;8.15;;;;;;;30.57;52.91;100240.66;5074832;28;20027;-83
2023/06/25 10:58:23;;;;;;;16.30;7.95;;;;;;;30.38;53.51;100253.22;5074957;28;20075;-88
2023/06/25 11:00:57;;;;;;;16.17;8.98;;;;;;;30.20;53.98;100246.94;5070535;28;20033;-84
2023/06/25 11:03:23;;;;;;;21.88;8.20;;;;;;;30.10;54.66;100224.66;5076336;28;20039;-93
2023/06/25 11:05:49;;;;;;;19.80;8.52;;;;;;;30.27;54.13;100257.84;5076801;28;20037;-91
2023/06/25 11:08:15;;;;;;;18.70;8.30;;;;;;;30.04;54.24;100242.34;5085104;28;20017;-88